Time;durP1;ratioP1;P1;durP2;ratioP2;P2;SDS_P1;SDS_P2;PMS_P1;PMS_P2;Temp;Humidity;BMP_temperature;BMP_pressure;BME280_temperature;BME280_humidity;BME280_pressure;Samples;Min_cycle;Max_cycle;Signal;HPM_P1;HPM_P2
2022/10/23 00:01:45;;;;;;;37.45;6.00;;;;;;;8.49;nan;94053.59;4933341;29;20062;-63
2022/10/23 00:04:24;;;;;;;39.35;7.00;;;;;;;8.44;nan;94051.28;4933422;29;20058;-63
2022/10/23 00:06:50;;;;;;;30.67;5.40;;;;;;;8.34;nan;94043.88;4932484;29;20413;-63
2022/10/23 00:09:21;;;;;;;41.97;5.78;;;;;;;8.32;nan;94038.03;4932955;29;20044;-63
2022/10/23 00:11:49;;;;;;;29.20;6.50;;;;;;;8.36;nan;94036.06;4933445;29;20050;-63
2022/10/23 00:14:19;;;;;;;57.75;28.05;;;;;;;8.38;nan;94042.66;4932848;29;20412;-62
2022/10/23 00:16:45;;;;;;;47.90;15.75;;;;;;;8.32;nan;94046.22;4920149;29;20043;-63
2022/10/23 00:19:12;;;;;;;33.07;5.40;;;;;;;8.13;nan;94050.19;4933264;29;20056;-64
2022/10/23 00:21:39;;;;;;;30.48;6.07;;;;;;;8.08;nan;94048.66;4915184;29;20663;-63
2022/10/23 00:24:07;;;;;;;31.65;4.65;;;;;;;8.18;nan;94038.88;4900691;29;20405;-64
2022/10/23 00:26:38;;;;;;;18.67;4.63;;;;;;;8.29;nan;94042.34;4932669;29;20481;-64
2022/10/23 00:29:06;;;;;;;37.85;5.75;;;;;;;8.22;nan;94036.91;4933156;29;20489;-63
2022/10/23 00:31:33;;;;;;;20.10;5.40;;;;;;;8.31;nan;94025.50;4931783;29;20062;-62
2022/10/23 00:34:01;;;;;;;37.05;4.60;;;;;;;8.24;nan;94029.06;4916274;29;20040;-63
2022/10/23 00:36:28;;;;;;;32.55;4.25;;;;;;;7.99;nan;94026.47;4932414;29;20051;-64
2022/10/23 00:38:54;;;;;;;29.55;5.13;;;;;;;8.05;nan;94024.06;4932896;29;20043;-63
2022/10/23 00:41:27;;;;;;;20.13;4.38;;;;;;;8.03;nan;94023.69;4932435;29;20054;-63
2022/10/23 00:44:17;;;;;;;40.83;7.47;;;;;;;8.06;nan;94028.38;4932884;29;20509;-64
2022/10/23 00:46:45;;;;;;;13.23;5.72;;;;;;;8.13;nan;94017.41;4932167;29;20635;-63
2022/10/23 00:49:13;;;;;;;10.57;5.00;;;;;;;8.23;nan;94022.06;4933045;29;20055;-63
2022/10/23 00:51:50;;;;;;;19.30;4.60;;;;;;;8.25;nan;94011.50;4932074;29;20811;-63
2022/10/23 00:54:20;;;;;;;23.88;4.30;;;;;;;8.23;nan;94011.13;4932270;29;20050;-63
2022/10/23 00:56:52;;;;;;;20.47;4.03;;;;;;;8.07;nan;94016.25;4918424;29;20519;-63
2022/10/23 00:59:19;;;;;;;38.60;5.00;;;;;;;7.99;nan;94021.00;4932499;29;20055;-63
2022/10/23 01:01:47;;;;;;;33.05;5.80;;;;;;;8.05;nan;94010.41;4932795;29;20044;-63
2022/10/23 01:04:14;;;;;;;67.75;34.08;;;;;;;8.14;nan;94014.28;4915180;29;20044;-63
2022/10/23 01:06:51;;;;;;;30.08;9.15;;;;;;;8.22;nan;94009.56;4932925;29;20054;-63
2022/10/23 01:09:30;;;;;;;23.07;8.83;;;;;;;8.19;nan;94007.63;4932449;29;20042;-64
2022/10/23 01:12:11;;;;;;;28.88;7.38;;;;;;;8.14;nan;94006.06;4932923;29;20043;-63
2022/10/23 01:14:53;;;;;;;17.85;5.30;;;;;;;8.14;nan;93999.84;4932003;29;20058;-63
2022/10/23 01:17:50;;;;;;;23.88;4.65;;;;;;;8.17;nan;94005.28;4931906;29;20051;-63
2022/10/23 01:20:20;;;;;;;14.80;4.10;;;;;;;8.18;nan;94001.38;4932138;29;20040;-64
2022/10/23 01:23:09;;;;;;;22.97;4.97;;;;;;;8.24;nan;94000.97;4911014;29;20056;-63
2022/10/23 01:25:54;;;;;;;13.50;6.20;;;;;;;8.26;nan;94004.84;4926219;29;20048;-63
2022/10/23 01:28:38;;;;;;;15.98;6.70;;;;;;;8.24;nan;94000.97;4930489;29;20056;-64
2022/10/23 01:31:10;;;;;;;10.80;5.55;;;;;;;8.35;nan;94001.66;4932394;29;20523;-63
2022/10/23 01:33:46;;;;;;;11.80;6.30;;;;;;;8.35;nan;93988.78;4932297;29;20401;-63
2022/10/23 01:36:15;;;;;;;14.67;5.20;;;;;;;8.41;nan;93991.91;4932425;29;20062;-63
2022/10/23 01:38:56;;;;;;;9.75;4.90;;;;;;;8.31;nan;93998.16;4915500;29;20051;-63
2022/10/23 01:41:54;;;;;;;8.73;4.28;;;;;;;8.33;nan;93996.63;4932555;29;20044;-63
2022/10/23 01:44:32;;;;;;;6.95;3.67;;;;;;;8.51;nan;93987.53;4926506;29;20098;-63
2022/10/23 01:47:01;;;;;;;18.15;10.43;;;;;;;8.59;nan;93995.31;4935953;29;20050;-63
2022/10/23 01:49:30;;;;;;;12.80;6.80;;;;;;;8.67;nan;93984.31;4935183;29;20054;-63
2022/10/23 01:52:01;;;;;;;8.55;4.90;;;;;;;8.60;nan;93990.63;4935459;29;20044;-63
2022/10/23 01:54:32;;;;;;;8.48;4.50;;;;;;;8.64;nan;93982.41;4935386;29;20062;-64
2022/10/23 01:57:01;;;;;;;7.28;4.07;;;;;;;8.74;nan;93974.09;4935360;29;20051;-63
2022/10/23 01:59:37;;;;;;;6.80;3.70;;;;;;;8.77;nan;93978.78;4935164;29;20043;-63
2022/10/23 02:02:08;;;;;;;6.23;3.67;;;;;;;8.82;nan;93972.09;4935573;29;20048;-63
2022/10/23 02:04:57;;;;;;;6.63;3.72;;;;;;;8.76;nan;93973.72;4935331;29;20045;-63
2022/10/23 02:07:24;;;;;;;6.35;3.70;;;;;;;8.68;nan;93974.94;4934479;29;20057;-64
2022/10/23 02:09:51;;;;;;;7.53;3.95;;;;;;;8.60;nan;93966.78;4935480;29;20053;-63
2022/10/23 02:12:56;;;;;;;7.28;4.20;;;;;;;8.62;nan;93960.91;4934733;29;20408;-62
2022/10/23 02:15:31;;;;;;;7.87;3.80;;;;;;;8.56;nan;93960.53;4932747;29;20047;-63
2022/10/23 02:18:08;;;;;;;7.43;4.40;;;;;;;8.41;nan;93959.09;4930980;29;20056;-64
2022/10/23 02:20:52;;;;;;;7.00;4.28;;;;;;;8.43;nan;93950.47;4934722;29;20051;-64
2022/10/23 02:23:31;;;;;;;7.70;4.00;;;;;;;8.44;nan;93952.06;4934705;29;20054;-63
2022/10/23 02:26:16;;;;;;;6.63;4.00;;;;;;;8.42;nan;93944.25;4935318;29;20039;-64
2022/10/23 02:28:51;;;;;;;10.03;4.33;;;;;;;8.28;nan;93936.09;4934413;29;20679;-63
2022/10/23 02:31:21;;;;;;;8.07;3.90;;;;;;;8.33;nan;93944.66;4932764;29;20048;-64
2022/10/23 02:33:48;;;;;;;7.43;4.07;;;;;;;8.28;nan;93949.78;4934958;29;20054;-62
2022/10/23 02:36:15;;;;;;;7.72;3.55;;;;;;;8.31;nan;93938.81;4917624;29;20043;-65
2022/10/23 02:38:43;;;;;;;7.95;4.20;;;;;;;8.17;nan;93938.91;4934903;29;20094;-64
2022/10/23 02:41:17;;;;;;;6.10;4.17;;;;;;;8.04;nan;93929.59;4935002;29;20052;-63
2022/10/23 02:44:38;;;;;;;9.65;4.38;;;;;;;8.03;nan;93938.97;4934008;29;20772;-62
2022/10/23 02:47:49;;;;;;;6.85;4.20;;;;;;;8.07;nan;93945.19;4879310;29;20833;-63
2022/10/23 02:50:52;;;;;;;6.60;3.95;;;;;;;8.11;nan;93944.00;4894181;29;20789;-65
2022/10/23 02:53:24;;;;;;;7.15;4.25;;;;;;;8.06;nan;93933.47;4933101;29;20043;-63
2022/10/23 02:55:57;;;;;;;6.90;4.00;;;;;;;8.06;nan;93927.25;4934776;29;20040;-64
2022/10/23 02:58:35;;;;;;;7.28;3.97;;;;;;;8.00;nan;93935.06;4933915;29;20070;-62
2022/10/23 03:01:16;;;;;;;7.60;4.05;;;;;;;7.96;nan;93932.34;4934449;29;20052;-63
2022/10/23 03:03:53;;;;;;;7.15;4.05;;;;;;;7.96;nan;93926.13;4933328;29;20859;-63
2022/10/23 03:06:21;;;;;;;8.50;4.30;;;;;;;8.00;nan;93935.84;4933857;29;20044;-63
2022/10/23 03:09:01;;;;;;;7.93;3.90;;;;;;;7.93;nan;93918.75;4934432;29;20043;-63
2022/10/23 03:11:28;;;;;;;7.55;4.18;;;;;;;7.89;nan;93924.22;4917075;29;20051;-63
2022/10/23 03:13:55;;;;;;;7.63;4.10;;;;;;;7.92;nan;93926.13;4934365;29;20061;-63
2022/10/23 03:16:22;;;;;;;6.82;4.03;;;;;;;7.92;nan;93917.16;4933763;29;20052;-64
2022/10/23 03:18:49;;;;;;;8.52;4.40;;;;;;;7.71;nan;93929.00;4934017;29;20062;-63
2022/10/23 03:21:16;;;;;;;9.30;4.73;;;;;;;7.56;nan;93925.50;4933491;29;20049;-63
2022/10/23 03:23:43;;;;;;;12.77;4.75;;;;;;;7.46;nan;93924.38;4933719;29;20054;-64
2022/10/23 03:26:09;;;;;;;22.98;5.25;;;;;;;7.47;nan;93920.47;4933994;29;20536;-63
2022/10/23 03:28:36;;;;;;;48.53;7.30;;;;;;;7.44;nan;93917.75;4933352;29;20047;-65
2022/10/23 03:31:03;;;;;;;20.58;5.75;;;;;;;7.45;nan;93903.72;4932155;29;20048;-63
2022/10/23 03:33:31;;;;;;;44.40;6.40;;;;;;;7.48;nan;93908.38;4933322;29;20051;-63
2022/10/23 03:35:57;;;;;;;16.92;4.93;;;;;;;7.43;nan;93900.59;4933813;29;20494;-63
2022/10/23 03:38:24;;;;;;;53.45;6.10;;;;;;;7.33;nan;93904.16;4933122;29;20051;-64
2022/10/23 03:40:51;;;;;;;28.92;5.00;;;;;;;7.27;nan;93903.78;4917069;29;20040;-63
2022/10/23 03:43:18;;;;;;;12.30;5.32;;;;;;;7.34;nan;93909.19;4916244;29;20054;-63
2022/10/23 03:45:44;;;;;;;14.13;4.90;;;;;;;7.40;nan;93906.84;4933820;29;20047;-63
2022/10/23 03:48:11;;;;;;;11.18;4.47;;;;;;;7.46;nan;93907.22;4933633;29;20047;-63
2022/10/23 03:50:38;;;;;;;13.30;5.28;;;;;;;7.49;nan;93911.91;4932636;29;20758;-63
2022/10/23 03:53:05;;;;;;;10.55;4.90;;;;;;;7.53;nan;93909.94;4933064;29;20520;-63
2022/10/23 03:55:31;;;;;;;10.15;4.13;;;;;;;7.57;nan;93911.47;4933218;29;20048;-63
2022/10/23 03:57:58;;;;;;;11.50;4.40;;;;;;;7.44;nan;93901.38;4933463;29;20036;-64
2022/10/23 04:00:25;;;;;;;11.02;4.43;;;;;;;7.40;nan;93904.13;4916136;29;20059;-63
2022/10/23 04:02:52;;;;;;;7.68;3.83;;;;;;;7.35;nan;93899.06;4933447;29;20055;-63
2022/10/23 04:05:18;;;;;;;12.50;4.30;;;;;;;7.34;nan;93895.53;4932898;29;20044;-63
2022/10/23 04:07:45;;;;;;;9.48;4.30;;;;;;;7.19;nan;93900.28;4916466;29;20444;-64
2022/10/23 04:10:12;;;;;;;7.93;4.13;;;;;;;7.27;nan;93903.00;4933275;29;20051;-64
2022/10/23 04:12:39;;;;;;;7.57;4.18;;;;;;;7.30;nan;93902.19;4914920;29;20401;-63
2022/10/23 04:15:06;;;;;;;6.82;3.67;;;;;;;7.35;nan;93897.13;4933348;29;20468;-63
2022/10/23 04:17:33;;;;;;;14.40;4.00;;;;;;;7.20;nan;93909.25;4932588;29;20043;-64
2022/10/23 04:20:00;;;;;;;8.98;4.07;;;;;;;7.08;nan;93888.59;4933275;29;20048;-62
2022/10/23 04:22:27;;;;;;;13.13;4.37;;;;;;;7.00;nan;93901.50;4932693;29;20044;-64
2022/10/23 04:24:55;;;;;;;7.22;3.80;;;;;;;6.96;nan;93889.81;4916212;29;20052;-63
2022/10/23 04:27:21;;;;;;;7.75;4.43;;;;;;;7.01;nan;93888.63;4932781;29;20048;-63
2022/10/23 04:29:48;;;;;;;44.08;4.68;;;;;;;6.96;nan;93886.28;4931596;29;20040;-63
2022/10/23 04:32:15;;;;;;;13.63;3.70;;;;;;;6.94;nan;93900.34;4915777;29;20048;-63
2022/10/23 04:34:42;;;;;;;7.00;3.13;;;;;;;7.02;nan;93886.69;4919838;29;20055;-64
2022/10/23 04:37:09;;;;;;;9.18;3.60;;;;;;;6.88;nan;93892.94;4933254;29;20060;-64
2022/10/23 04:39:36;;;;;;;8.32;3.65;;;;;;;6.78;nan;93891.78;4915494;29;20075;-65
2022/10/23 04:42:03;;;;;;;11.43;3.50;;;;;;;6.83;nan;93896.84;4933212;29;20043;-63
2022/10/23 04:44:29;;;;;;;33.92;4.05;;;;;;;6.89;nan;93887.09;4932397;29;20413;-63
2022/10/23 04:46:56;;;;;;;27.47;3.60;;;;;;;6.90;nan;93880.47;4932810;29;20073;-64
2022/10/23 04:49:23;;;;;;;30.75;3.70;;;;;;;6.82;nan;93892.53;4932244;29;20503;-64
2022/10/23 04:51:50;;;;;;;55.05;4.20;;;;;;;6.81;nan;93893.72;4932977;29;20047;-64
2022/10/23 04:54:16;;;;;;;60.40;4.28;;;;;;;6.77;nan;93877.38;4932233;29;20044;-64
2022/10/23 04:56:43;;;;;;;37.10;4.15;;;;;;;6.90;nan;93883.22;4932800;29;20047;-63
2022/10/23 04:59:10;;;;;;;24.90;3.83;;;;;;;6.82;nan;93883.59;4932819;29;20044;-63
2022/10/23 05:01:37;;;;;;;44.85;4.30;;;;;;;6.71;nan;93895.28;4932270;29;20040;-63
2022/10/23 05:04:04;;;;;;;27.45;4.22;;;;;;;6.73;nan;93887.50;4932900;29;20044;-64
2022/10/23 05:06:31;;;;;;;18.90;3.40;;;;;;;6.74;nan;93889.06;4932344;29;20062;-63
2022/10/23 05:08:58;;;;;;;45.42;3.92;;;;;;;6.45;nan;93899.22;4932921;29;20057;-64
2022/10/23 05:11:25;;;;;;;60.13;5.30;;;;;;;6.43;nan;93889.88;4932330;29;20048;-63
2022/10/23 05:13:51;;;;;;;15.50;3.97;;;;;;;6.46;nan;93894.53;4932666;29;20054;-63
2022/10/23 05:16:47;;;;;;;23.08;4.28;;;;;;;6.55;nan;93890.25;4932896;29;20142;-65
2022/10/23 05:19:20;;;;;;;6.80;3.70;;;;;;;6.63;nan;93903.88;4924067;29;20069;-64
2022/10/23 05:21:54;;;;;;;15.48;4.00;;;;;;;6.58;nan;93889.47;4936221;29;20036;-63
2022/10/23 05:24:25;;;;;;;53.40;4.73;;;;;;;6.39;nan;93878.97;4935750;29;20058;-64
2022/10/23 05:26:52;;;;;;;21.92;4.13;;;;;;;6.46;nan;93884.41;4936111;29;20651;-63
2022/10/23 05:29:19;;;;;;;8.52;3.47;;;;;;;6.39;nan;93874.28;4935525;29;20040;-64
2022/10/23 05:31:49;;;;;;;5.68;3.05;;;;;;;6.50;nan;93874.28;4919121;29;20047;-63
2022/10/23 05:34:19;;;;;;;5.32;3.25;;;;;;;6.57;nan;93878.94;4935459;29;20047;-64
2022/10/23 05:36:46;;;;;;;9.13;3.43;;;;;;;6.59;nan;93882.84;4935752;29;20044;-62
2022/10/23 05:39:13;;;;;;;7.47;3.50;;;;;;;6.46;nan;93876.25;4935218;29;20062;-63
2022/10/23 05:41:40;;;;;;;13.90;4.00;;;;;;;6.46;nan;93878.97;4936032;29;20051;-63
2022/10/23 05:44:07;;;;;;;24.08;4.18;;;;;;;6.38;nan;93875.47;4935871;29;20043;-63
2022/10/23 05:46:38;;;;;;;25.33;4.20;;;;;;;6.42;nan;93880.91;4935305;29;20048;-63
2022/10/23 05:49:05;;;;;;;41.83;4.70;;;;;;;6.36;nan;93879.75;4936063;29;20059;-63
2022/10/23 05:51:35;;;;;;;12.45;3.50;;;;;;;6.29;nan;93875.06;4935167;29;20404;-63
2022/10/23 05:54:02;;;;;;;16.75;3.88;;;;;;;6.32;nan;93881.69;4935444;29;20044;-64
2022/10/23 05:56:29;;;;;;;9.88;3.65;;;;;;;6.37;nan;93881.28;4935214;29;20058;-64
2022/10/23 05:58:56;;;;;;;12.18;3.30;;;;;;;6.34;nan;93879.38;4935530;29;20058;-62
2022/10/23 06:01:22;;;;;;;32.10;3.97;;;;;;;6.28;nan;93878.16;4933320;29;20054;-63
2022/10/23 06:03:50;;;;;;;9.35;3.20;;;;;;;6.31;nan;93885.56;4935306;29;20043;-63
2022/10/23 06:06:16;;;;;;;7.82;3.30;;;;;;;6.41;nan;93887.53;4935179;29;20048;-64
2022/10/23 06:08:43;;;;;;;5.57;3.53;;;;;;;6.39;nan;93884.41;4918585;29;20047;-64
2022/10/23 06:11:13;;;;;;;5.38;3.22;;;;;;;6.59;nan;93879.34;4935439;29;20043;-63
2022/10/23 06:13:44;;;;;;;5.17;3.17;;;;;;;6.70;nan;93879.31;4934616;29;20347;-64
2022/10/23 06:16:14;;;;;;;15.02;3.28;;;;;;;6.78;nan;93889.06;4935254;29;20056;-63
2022/10/23 06:18:41;;;;;;;35.50;4.20;;;;;;;6.76;nan;93894.91;4934361;29;20632;-63
2022/10/23 06:21:08;;;;;;;37.83;4.40;;;;;;;6.77;nan;93893.72;4935241;29;20039;-64
2022/10/23 06:23:36;;;;;;;21.77;4.50;;;;;;;6.82;nan;93889.06;4934758;29;20040;-63
2022/10/23 06:26:04;;;;;;;8.07;4.07;;;;;;;7.02;nan;93889.41;4935062;29;20048;-63
2022/10/23 06:28:31;;;;;;;6.80;3.78;;;;;;;7.20;nan;93888.22;4933663;29;20044;-64
2022/10/23 06:30:58;;;;;;;7.95;4.05;;;;;;;7.34;nan;93894.78;4935011;29;20043;-64
2022/10/23 06:33:25;;;;;;;10.50;4.18;;;;;;;7.49;nan;93888.09;4934825;29;20054;-63
2022/10/23 06:35:55;;;;;;;11.63;4.22;;;;;;;7.36;nan;93884.25;4934935;29;20397;-63
2022/10/23 06:38:21;;;;;;;10.70;4.57;;;;;;;7.54;nan;93893.13;4934475;29;20055;-63
2022/10/23 06:40:53;;;;;;;11.70;4.63;;;;;;;7.71;nan;93888.00;4917916;29;20046;-63
2022/10/23 06:43:21;;;;;;;22.75;5.70;;;;;;;7.72;nan;93873.94;4934628;29;20058;-63
2022/10/23 06:45:48;;;;;;;15.80;6.93;;;;;;;7.78;nan;93883.28;4934716;29;20039;-64
2022/10/23 06:48:15;;;;;;;90.82;35.72;;;;;;;7.63;nan;93886.50;4934428;29;20047;-62
2022/10/23 06:50:42;;;;;;;88.60;24.47;;;;;;;7.74;nan;93887.19;4934657;29;20054;-61
2022/10/23 06:53:09;;;;;;;42.67;7.07;;;;;;;7.79;nan;93875.88;4934138;29;20058;-62
2022/10/23 06:55:36;;;;;;;23.80;5.70;;;;;;;8.31;nan;93877.88;4934332;29;20043;-62
2022/10/23 06:58:09;;;;;;;32.80;7.20;;;;;;;8.61;nan;93882.75;4934630;29;20043;-62
2022/10/23 07:00:37;;;;;;;26.08;10.00;;;;;;;9.04;nan;93882.38;4929850;29;20062;-64
2022/10/23 07:03:04;;;;;;;21.60;5.77;;;;;;;9.75;nan;93889.00;4933665;29;20043;-63
2022/10/23 07:05:31;;;;;;;28.00;9.77;;;;;;;10.50;nan;93887.22;4933424;29;20051;-61
2022/10/23 07:07:58;;;;;;;15.73;8.52;;;;;;;11.70;nan;93883.94;4933193;29;20054;-62
2022/10/23 07:10:25;;;;;;;18.92;13.52;;;;;;;11.77;nan;93879.06;4934064;29;20071;-63
2022/10/23 07:12:53;;;;;;;10.85;5.38;;;;;;;11.75;nan;93875.16;4922265;29;20088;-63
2022/10/23 07:15:19;;;;;;;10.13;5.10;;;;;;;11.35;nan;93881.44;4941745;28;20063;-64
2022/10/23 07:17:46;;;;;;;13.13;4.65;;;;;;;10.65;nan;93874.03;4936710;29;20400;-62
2022/10/23 07:20:13;;;;;;;11.27;5.50;;;;;;;10.44;nan;93866.91;4943972;28;20044;-62
2022/10/23 07:22:40;;;;;;;25.88;6.40;;;;;;;10.26;nan;93878.16;4933530;29;20043;-64
2022/10/23 07:25:07;;;;;;;13.30;5.22;;;;;;;12.02;nan;93875.03;4917151;29;20390;-62
2022/10/23 07:27:37;;;;;;;9.30;5.37;;;;;;;12.97;nan;93877.94;4933735;29;20048;-64
2022/10/23 07:30:04;;;;;;;11.52;5.03;;;;;;;12.86;nan;93874.69;4933748;29;20044;-63
2022/10/23 07:32:31;;;;;;;21.60;3.80;;;;;;;13.12;nan;93879.16;4933462;29;20061;-63
2022/10/23 07:34:58;;;;;;;8.35;4.50;;;;;;;12.85;nan;93876.66;4937778;29;20053;-62
2022/10/23 07:37:27;;;;;;;8.13;3.72;;;;;;;15.07;nan;93877.88;4942015;28;20051;-63
2022/10/23 07:39:54;;;;;;;8.23;4.10;;;;;;;16.74;nan;93866.69;4933334;29;20059;-63
2022/10/23 07:42:20;;;;;;;8.30;4.00;;;;;;;16.89;nan;93869.69;4933240;29;20044;-63
2022/10/23 07:44:47;;;;;;;7.82;4.20;;;;;;;15.92;nan;93867.06;4933321;29;20040;-65
2022/10/23 07:47:14;;;;;;;6.55;3.88;;;;;;;17.03;nan;93870.34;4933377;29;20091;-63
2022/10/23 07:49:41;;;;;;;6.25;3.65;;;;;;;18.37;nan;93866.91;4933682;29;20058;-63
2022/10/23 07:52:07;;;;;;;7.83;5.53;;;;;;;17.06;nan;93872.94;4933074;29;20043;-62
2022/10/23 07:54:34;;;;;;;5.63;3.15;;;;;;;15.63;nan;93875.56;4933194;29;20044;-63
2022/10/23 07:57:01;;;;;;;4.70;2.50;;;;;;;15.62;nan;93871.28;4933506;29;20040;-64
2022/10/23 07:59:28;;;;;;;4.88;2.83;;;;;;;15.08;nan;93875.88;4932425;29;20048;-63
2022/10/23 08:01:55;;;;;;;4.68;3.00;;;;;;;15.15;nan;93884.69;4933345;29;20050;-63
2022/10/23 08:04:23;;;;;;;5.67;3.00;;;;;;;15.28;nan;93881.13;4932766;29;20058;-63
2022/10/23 08:06:50;;;;;;;6.35;2.70;;;;;;;16.15;nan;93888.72;4932979;29;20036;-64
2022/10/23 08:09:17;;;;;;;4.15;2.40;;;;;;;15.21;nan;93893.16;4921545;28;20057;-63
2022/10/23 08:11:44;;;;;;;4.53;2.35;;;;;;;17.89;nan;93886.16;4941170;28;20044;-63
2022/10/23 08:14:11;;;;;;;5.38;2.60;;;;;;;18.68;nan;93872.22;4933078;29;20055;-64
2022/10/23 08:16:38;;;;;;;4.13;2.60;;;;;;;20.31;nan;93874.09;4915616;29;20052;-63
2022/10/23 08:19:06;;;;;;;5.45;2.70;;;;;;;22.13;nan;93868.53;4933127;29;20054;-63
2022/10/23 08:21:33;;;;;;;4.82;2.60;;;;;;;21.81;nan;93864.91;4932571;29;20048;-61
2022/10/23 08:24:00;;;;;;;3.63;2.10;;;;;;;23.72;nan;93856.47;4932419;29;20044;-60
2022/10/23 08:26:30;;;;;;;3.92;3.08;;;;;;;24.99;nan;93857.75;4932127;29;20047;-61
2022/10/23 08:28:58;;;;;;;4.00;2.40;;;;;;;26.38;nan;93852.22;4933155;29;20051;-61
2022/10/23 08:31:26;;;;;;;6.43;3.90;;;;;;;24.45;nan;93845.50;4932273;29;20056;-61
2022/10/23 08:33:53;;;;;;;5.97;3.00;;;;;;;21.74;nan;93846.50;4932932;29;20044;-61
2022/10/23 08:36:22;;;;;;;4.93;2.85;;;;;;;21.25;nan;93845.38;4932208;29;20043;-61
2022/10/23 08:38:52;;;;;;;5.22;2.78;;;;;;;23.22;nan;93837.41;4932801;29;20047;-61
2022/10/23 08:41:32;;;;;;;4.93;2.57;;;;;;;23.36;nan;93846.91;4932353;29;20482;-61
2022/10/23 08:44:08;;;;;;;4.82;2.58;;;;;;;24.32;nan;93845.22;4933064;29;20128;-61
2022/10/23 08:46:41;;;;;;;4.65;2.60;;;;;;;24.89;nan;93837.59;4932081;29;20392;-61
2022/10/23 08:49:32;;;;;;;3.97;2.60;;;;;;;23.72;nan;93845.28;4932780;29;20051;-61
2022/10/23 08:52:05;;;;;;;7.47;2.97;;;;;;;24.45;nan;93831.47;4933269;29;20849;-61
2022/10/23 08:55:21;;;;;;;4.07;2.23;;;;;;;23.31;nan;93834.41;4936266;29;20048;-62
2022/10/23 08:58:16;;;;;;;4.72;2.92;;;;;;;22.28;nan;93834.91;4919563;29;22644;-60
2022/10/23 09:00:45;;;;;;;4.28;2.97;;;;;;;22.01;nan;93838.91;4935365;29;20724;-61
2022/10/23 09:03:12;;;;;;;4.57;2.50;;;;;;;23.57;nan;93830.72;4936593;29;20056;-61
2022/10/23 09:06:07;;;;;;;4.03;2.55;;;;;;;24.32;nan;93819.97;4935756;29;20213;-61
2022/10/23 09:08:55;;;;;;;4.00;2.27;;;;;;;23.93;nan;93813.03;4935616;29;20044;-61
2022/10/23 09:11:34;;;;;;;3.80;2.20;;;;;;;23.15;nan;93826.69;4925429;29;20500;-62
2022/10/23 09:14:39;;;;;;;4.00;2.20;;;;;;;23.60;nan;93818.47;4936244;29;20054;-61
2022/10/23 09:17:27;;;;;;;4.20;1.95;;;;;;;23.02;nan;93822.28;4935400;29;20228;-61
2022/10/23 09:20:06;;;;;;;3.72;1.95;;;;;;;22.67;nan;93814.88;4925230;29;20444;-61
2022/10/23 09:22:33;;;;;;;3.97;2.00;;;;;;;22.09;nan;93805.72;4934898;29;20055;-62
2022/10/23 09:24:59;;;;;;;4.10;2.40;;;;;;;21.85;nan;93809.56;4935843;29;20042;-62
2022/10/23 09:27:26;;;;;;;3.63;1.80;;;;;;;23.01;nan;93809.53;4935363;29;20051;-61
2022/10/23 09:29:55;;;;;;;2.90;1.60;;;;;;;24.28;nan;93802.63;4935823;29;20110;-61
2022/10/23 09:32:36;;;;;;;3.58;1.60;;;;;;;25.14;nan;93796.47;4935764;29;20048;-61
2022/10/23 09:35:04;;;;;;;2.90;1.40;;;;;;;22.98;nan;93812.53;4936215;29;20050;-61
2022/10/23 09:37:34;;;;;;;3.15;1.35;;;;;;;23.11;nan;93802.47;4934858;29;20058;-61
2022/10/23 09:40:10;;;;;;;2.67;1.40;;;;;;;22.58;nan;93809.50;4936084;29;20035;-61
2022/10/23 09:42:37;;;;;;;2.75;1.30;;;;;;;22.48;nan;93806.09;4935389;29;20047;-62
2022/10/23 09:45:20;;;;;;;3.42;1.75;;;;;;;21.30;nan;93813.22;4936302;29;20050;-65
2022/10/23 09:47:47;;;;;;;4.40;1.37;;;;;;;21.26;nan;93802.25;4951005;28;20623;-61
2022/10/23 09:50:20;;;;;;;5.00;1.60;;;;;;;21.20;nan;93811.81;4935334;29;20052;-61
2022/10/23 09:52:53;;;;;;;3.60;1.80;;;;;;;20.55;nan;93799.47;4934814;29;20043;-61
2022/10/23 09:55:23;;;;;;;3.20;1.48;;;;;;;20.61;nan;93812.78;4935202;29;20054;-62
2022/10/23 09:57:52;;;;;;;3.20;1.70;;;;;;;21.74;nan;93807.41;4935096;29;20043;-61
2022/10/23 10:00:22;;;;;;;4.53;1.80;;;;;;;21.63;nan;93807.31;4933126;29;20047;-62
2022/10/23 10:03:17;;;;;;;5.20;1.85;;;;;;;22.06;nan;93812.31;4935261;29;20050;-61
2022/10/23 10:05:56;;;;;;;3.33;1.77;;;;;;;20.85;nan;93805.00;4934851;29;20393;-62
2022/10/23 10:08:45;;;;;;;3.95;1.65;;;;;;;21.00;nan;93801.41;4934966;29;20058;-62
2022/10/23 10:11:40;;;;;;;2.95;1.60;;;;;;;22.29;nan;93802.13;4947606;28;20501;-62
2022/10/23 10:14:25;;;;;;;3.10;1.70;;;;;;;22.06;nan;93801.13;4933862;29;20889;-62
2022/10/23 10:17:21;;;;;;;3.53;1.48;;;;;;;21.90;nan;93800.47;4917028;29;20669;-62
2022/10/23 10:20:06;;;;;;;2.70;1.40;;;;;;;21.45;nan;93793.63;4922865;29;21486;-62
2022/10/23 10:22:52;;;;;;;5.50;1.20;;;;;;;21.50;nan;93804.09;4947345;28;20048;-63
2022/10/23 10:25:31;;;;;;;4.38;1.40;;;;;;;21.49;nan;93805.34;4934471;29;20040;-62
2022/10/23 10:28:11;;;;;;;2.83;1.30;;;;;;;21.42;nan;93800.94;4935112;29;20098;-61
2022/10/23 10:31:09;;;;;;;4.53;1.80;;;;;;;21.58;nan;93801.66;4934155;29;20563;-62
2022/10/23 10:34:04;;;;;;;2.97;1.50;;;;;;;22.41;nan;93791.81;4934476;29;20050;-62
2022/10/23 10:36:49;;;;;;;2.40;1.25;;;;;;;22.48;nan;93792.13;4934467;29;20044;-62
2022/10/23 10:39:37;;;;;;;3.63;1.40;;;;;;;22.42;nan;93793.34;4934346;29;20050;-62
2022/10/23 10:42:28;;;;;;;3.40;1.10;;;;;;;22.69;nan;93789.97;4934937;29;20136;-62
2022/10/23 10:45:30;;;;;;;6.93;1.20;;;;;;;21.94;nan;93791.88;4933724;29;21740;-64
2022/10/23 10:48:12;;;;;;;3.40;1.40;;;;;;;21.87;nan;93792.31;4933930;29;20695;-61
2022/10/23 10:50:51;;;;;;;2.72;1.35;;;;;;;22.33;nan;93792.28;4933690;29;21755;-62
2022/10/23 10:53:54;;;;;;;3.42;1.13;;;;;;;22.65;nan;93775.44;4933547;29;20047;-62
2022/10/23 10:56:23;;;;;;;2.30;1.07;;;;;;;23.00;nan;93776.44;4909629;29;20048;-61
2022/10/23 10:59:03;;;;;;;2.72;1.20;;;;;;;23.98;nan;93755.44;4934507;29;20043;-63
2022/10/23 11:02:18;;;;;;;3.35;1.20;;;;;;;23.51;nan;93755.06;4933494;29;20058;-61
2022/10/23 11:04:56;;;;;;;3.42;1.13;;;;;;;22.54;nan;93759.38;4933341;29;20405;-61
2022/10/23 11:07:27;;;;;;;4.35;1.20;;;;;;;23.43;nan;93754.78;4933787;29;20044;-62
2022/10/23 11:09:57;;;;;;;2.33;1.00;;;;;;;23.48;nan;93747.66;4927802;29;20054;-61
2022/10/23 11:12:27;;;;;;;2.95;1.00;;;;;;;24.47;nan;93750.38;4936207;28;20065;-61
2022/10/23 11:14:55;;;;;;;2.17;0.90;;;;;;;24.31;nan;93754.72;4916734;29;20095;-61
2022/10/23 11:17:33;;;;;;;2.65;1.17;;;;;;;23.79;nan;93746.00;4916635;29;20051;-62
2022/10/23 11:20:23;;;;;;;3.20;1.05;;;;;;;23.50;nan;93743.09;4934182;29;20518;-62
2022/10/23 11:22:55;;;;;;;2.10;1.00;;;;;;;23.87;nan;93742.19;4932882;29;20767;-61
2022/10/23 11:25:52;;;;;;;2.03;0.90;;;;;;;24.73;nan;93735.34;4933578;29;20073;-61
2022/10/23 11:29:09;;;;;;;2.20;0.90;;;;;;;24.69;nan;93732.78;4901354;29;20158;-62
2022/10/23 11:31:58;;;;;;;2.10;0.85;;;;;;;25.89;nan;93740.22;4855732;29;20056;-62
2022/10/23 11:34:42;;;;;;;3.03;0.90;;;;;;;26.12;nan;93723.25;4855666;29;20049;-63
2022/10/23 11:37:15;;;;;;;2.63;1.00;;;;;;;25.00;nan;93722.50;4920125;29;20081;-62
2022/10/23 11:40:07;;;;;;;2.72;0.88;;;;;;;24.94;nan;93737.84;4932695;29;20229;-62
2022/10/23 11:42:39;;;;;;;4.95;1.20;;;;;;;24.14;nan;93731.50;4946781;28;20053;-62
2022/10/23 11:45:29;;;;;;;3.00;1.00;;;;;;;22.78;nan;93721.09;4933316;29;20054;-63
2022/10/23 11:48:03;;;;;;;3.17;1.13;;;;;;;21.96;nan;93729.91;4932647;29;20062;-62
2022/10/23 11:50:45;;;;;;;3.13;1.10;;;;;;;21.60;nan;93720.94;4933071;29;20058;-62
2022/10/23 11:53:30;;;;;;;3.05;1.20;;;;;;;21.57;nan;93714.31;4932843;29;20043;-62
2022/10/23 11:56:11;;;;;;;2.50;1.10;;;;;;;20.73;nan;93722.44;4932645;29;20906;-63
2022/10/23 11:58:46;;;;;;;5.53;1.30;;;;;;;20.80;nan;93715.69;4933132;29;20042;-63
2022/10/23 12:01:32;;;;;;;3.05;1.50;;;;;;;20.70;nan;93707.44;4915963;29;20055;-64
2022/10/23 12:04:13;;;;;;;3.53;1.13;;;;;;;20.97;nan;93687.97;4932577;29;21393;-64
2022/10/23 12:06:48;;;;;;;2.80;1.15;;;;;;;21.04;nan;93693.91;4932299;29;21499;-62
2022/10/23 12:09:34;;;;;;;3.40;1.30;;;;;;;21.03;nan;93691.63;4937781;28;20059;-62
2022/10/23 12:12:07;;;;;;;2.70;1.13;;;;;;;20.69;nan;93691.97;4938860;28;20404;-62
2022/10/23 12:14:36;;;;;;;2.95;1.20;;;;;;;20.42;nan;93684.72;4932797;29;20058;-61
2022/10/23 12:17:31;;;;;;;2.87;1.30;;;;;;;20.77;nan;93686.00;4932802;29;20043;-61
2022/10/23 12:20:06;;;;;;;3.63;1.40;;;;;;;21.07;nan;93686.59;4917838;29;20413;-61
2022/10/23 12:23:01;;;;;;;4.22;1.40;;;;;;;20.98;nan;93675.59;4932311;29;21409;-61